createdAt,value
2018-05-18T00:02:10.457Z,85.70
2018-05-18T00:04:42.833Z,85.90
2018-05-18T00:07:16.005Z,86.20
2018-05-18T00:09:48.310Z,86.10
2018-05-18T00:12:21.473Z,85.60
2018-05-18T00:14:53.788Z,85.50
2018-05-18T00:17:26.218Z,85.70
2018-05-18T00:19:58.560Z,85.70
2018-05-18T00:22:31.590Z,85.10
2018-05-18T00:25:03.950Z,85.30
2018-05-18T00:27:36.252Z,84.90
2018-05-18T00:30:09.519Z,86.00
2018-05-18T00:32:41.844Z,85.90
2018-05-18T00:35:14.145Z,85.80
2018-05-18T00:37:46.514Z,85.50
2018-05-18T00:40:18.807Z,85.00
2018-05-18T00:42:51.212Z,85.10
2018-05-18T00:45:25.567Z,85.50
2018-05-18T00:47:58.193Z,85.60
2018-05-18T00:50:30.577Z,85.50
2018-05-18T00:53:03.648Z,85.70
2018-05-18T00:55:54.985Z,85.60
2018-05-18T00:58:28.117Z,87.20
2018-05-18T01:01:00.492Z,87.10
2018-05-18T01:03:32.850Z,85.20
2018-05-18T01:06:05.251Z,85.20
2018-05-18T01:08:37.592Z,85.60
2018-05-18T01:11:09.884Z,84.80
2018-05-18T01:13:42.229Z,85.20
2018-05-18T01:16:14.529Z,84.50
2018-05-18T01:18:47.032Z,84.70
2018-05-18T01:21:20.201Z,84.30
2018-05-18T01:23:52.627Z,84.20
2018-05-18T01:26:24.915Z,84.30
2018-05-18T01:28:57.313Z,84.10
2018-05-18T01:31:29.666Z,84.90
2018-05-18T01:34:02.095Z,84.80
2018-05-18T01:36:34.403Z,84.30
2018-05-18T01:39:06.725Z,84.10
2018-05-18T01:41:39.075Z,84.60
2018-05-18T01:44:11.572Z,84.90
2018-05-18T01:46:43.923Z,85.70
2018-05-18T01:49:17.367Z,84.80
2018-05-18T01:51:50.506Z,85.20
2018-05-18T01:54:23.269Z,85.20
2018-05-18T01:56:56.441Z,84.80
2018-05-18T01:59:28.890Z,85.50
2018-05-18T02:02:01.237Z,85.10
2018-05-18T02:04:33.656Z,85.30
2018-05-18T02:07:05.984Z,83.80
2018-05-18T02:09:38.392Z,84.40
2018-05-18T02:12:11.471Z,84.30
2018-05-18T02:14:44.571Z,84.70
2018-05-18T02:17:16.871Z,84.60
2018-05-18T02:19:49.156Z,84.30
2018-05-18T02:22:21.587Z,84.80
2018-05-18T02:24:54.779Z,84.10
2018-05-18T02:27:27.981Z,83.60
2018-05-18T02:30:00.414Z,83.60
2018-05-18T02:32:32.720Z,84.50
2018-05-18T02:35:04.989Z,84.20
2018-05-18T02:37:37.316Z,84.80
2018-05-18T02:40:09.693Z,84.70
2018-05-18T02:42:42.132Z,85.40
2018-05-18T02:45:14.483Z,85.30
2018-05-18T02:47:47.532Z,85.50
2018-05-18T02:50:19.818Z,85.60
2018-05-18T02:52:53.580Z,84.60
2018-05-18T02:55:26.029Z,84.50
2018-05-18T02:57:58.338Z,84.50
2018-05-18T03:00:30.676Z,84.30
2018-05-18T03:03:03.052Z,84.60
2018-05-18T03:05:35.656Z,85.10
2018-05-18T03:08:08.052Z,84.60
2018-05-18T03:10:40.611Z,84.90
2018-05-18T03:13:13.241Z,84.60
2018-05-18T03:15:45.717Z,84.60
2018-05-18T03:18:18.859Z,84.60
2018-05-18T03:20:51.333Z,84.50
2018-05-18T03:23:23.801Z,85.10
2018-05-18T03:25:56.166Z,85.70
2018-05-18T03:28:28.442Z,85.90
2018-05-18T03:31:00.795Z,86.50
2018-05-18T03:33:33.103Z,86.60
2018-05-18T03:36:05.459Z,86.10
2018-05-18T03:38:37.853Z,86.10
2018-05-18T03:41:10.154Z,86.20
2018-05-18T03:43:42.556Z,86.00
2018-05-18T03:46:14.907Z,86.20
2018-05-18T03:48:47.914Z,86.90
2018-05-18T03:51:20.363Z,86.20
2018-05-18T03:53:52.712Z,86.50
2018-05-18T03:56:26.019Z,85.80
2018-05-18T03:58:59.114Z,85.70
2018-05-18T04:01:44.767Z,85.60
2018-05-18T04:04:29.565Z,85.40
2018-05-18T04:07:15.166Z,86.10
2018-05-18T04:09:47.526Z,86.10
2018-05-18T04:12:19.991Z,85.40
2018-05-18T04:14:53.334Z,85.60
2018-05-18T04:17:25.743Z,85.50
2018-05-18T04:19:58.085Z,85.40
2018-05-18T04:22:30.469Z,85.90
2018-05-18T04:25:02.929Z,85.70
2018-05-18T04:27:35.336Z,86.00
2018-05-18T04:30:07.775Z,85.50
2018-05-18T04:32:40.099Z,85.50
2018-05-18T04:35:13.171Z,85.20
2018-05-18T04:37:45.543Z,85.20
2018-05-18T04:40:17.896Z,85.40
2018-05-18T04:42:50.192Z,85.00
2018-05-18T04:45:23.254Z,84.30
2018-05-18T04:47:55.543Z,84.20
2018-05-18T04:50:27.833Z,84.60
2018-05-18T04:53:00.968Z,84.60
2018-05-18T04:55:33.380Z,84.60
2018-05-18T04:58:05.968Z,84.60
2018-05-18T05:00:40.093Z,84.60
2018-05-18T05:03:12.516Z,84.60
2018-05-18T05:05:44.857Z,84.70
2018-05-18T05:08:17.183Z,84.60
2018-05-18T05:10:50.140Z,85.20
2018-05-18T05:13:22.895Z,85.30
2018-05-18T05:15:55.438Z,84.90
2018-05-18T05:18:28.117Z,85.30
2018-05-18T05:21:00.761Z,85.00
2018-05-18T05:23:34.264Z,84.00
2018-05-18T05:26:06.540Z,83.20
2018-05-18T05:28:38.953Z,83.20
2018-05-18T05:31:12.097Z,83.00
2018-05-18T05:33:44.492Z,83.00
2018-05-18T05:36:16.771Z,82.20
2018-05-18T05:38:49.754Z,82.40
2018-05-18T05:41:22.000Z,82.40
2018-05-18T05:43:54.375Z,82.20
2018-05-18T05:46:26.744Z,81.70
2018-05-18T05:48:59.085Z,82.10
2018-05-18T05:51:31.389Z,83.00
2018-05-18T05:54:03.689Z,82.70
2018-05-18T05:56:35.981Z,82.70
2018-05-18T05:59:09.201Z,82.60
2018-05-18T06:01:42.320Z,82.50
2018-05-18T06:04:14.619Z,82.50
2018-05-18T06:06:46.901Z,82.10
2018-05-18T06:09:19.973Z,82.10
2018-05-18T06:11:52.307Z,82.10
2018-05-18T06:14:24.901Z,81.30
2018-05-18T06:16:57.213Z,81.70
2018-05-18T06:19:30.439Z,80.80
2018-05-18T06:22:02.739Z,80.70
2018-05-18T06:24:35.088Z,80.40
2018-05-18T06:27:07.430Z,81.50
2018-05-18T06:29:39.775Z,81.90
2018-05-18T06:32:12.071Z,80.20
2018-05-18T06:34:44.608Z,80.60
2018-05-18T06:37:17.569Z,81.00
2018-05-18T06:39:50.015Z,81.00
2018-05-18T06:42:22.424Z,80.30
2018-05-18T06:44:54.756Z,79.70
2018-05-18T06:47:26.989Z,78.20
2018-05-18T06:49:59.268Z,76.90
2018-05-18T06:52:31.632Z,76.40
2018-05-18T06:55:04.004Z,76.30
2018-05-18T06:57:36.345Z,78.20
2018-05-18T07:00:08.748Z,79.60
2018-05-18T07:02:41.155Z,78.80
2018-05-18T07:05:13.537Z,80.40
2018-05-18T07:07:45.861Z,79.90
2018-05-18T07:10:18.233Z,80.20
2018-05-18T07:12:50.539Z,80.00
2018-05-18T07:15:22.887Z,78.60
2018-05-18T07:17:55.151Z,79.80
2018-05-18T07:20:27.647Z,79.70
2018-05-18T07:23:00.052Z,78.90
2018-05-18T07:25:32.440Z,79.00
2018-05-18T07:28:04.741Z,79.80
2018-05-18T07:30:37.080Z,79.30
2018-05-18T07:33:09.415Z,77.60
2018-05-18T07:35:42.574Z,77.10
2018-05-18T07:38:14.832Z,77.00
2018-05-18T07:40:47.187Z,77.00
2018-05-18T07:43:20.371Z,75.00
2018-05-18T07:45:52.784Z,74.90
2018-05-18T07:48:25.109Z,75.30
2018-05-18T07:50:57.573Z,74.80
2018-05-18T07:53:30.037Z,75.40
2018-05-18T07:56:02.323Z,74.60
2018-05-18T07:58:34.988Z,74.20
2018-05-18T08:01:07.406Z,73.70
2018-05-18T08:03:39.730Z,73.00
2018-05-18T08:06:12.097Z,72.90
2018-05-18T08:08:44.412Z,72.50
2018-05-18T08:11:16.745Z,71.90
2018-05-18T08:13:49.062Z,72.60
2018-05-18T08:16:21.410Z,72.50
2018-05-18T08:18:53.750Z,72.20
2018-05-18T08:21:26.967Z,70.60
2018-05-18T08:23:59.290Z,70.60
2018-05-18T08:26:31.727Z,69.90
2018-05-18T08:29:16.526Z,71.10
2018-05-18T08:31:48.776Z,69.70
2018-05-18T08:34:21.244Z,69.60
2018-05-18T08:36:53.669Z,68.50
2018-05-18T08:39:26.061Z,67.80
2018-05-18T08:41:58.394Z,68.40
2018-05-18T08:44:30.779Z,66.00
2018-05-18T08:47:03.088Z,67.40
2018-05-18T08:49:35.484Z,63.80
2018-05-18T08:52:07.836Z,66.20
2018-05-18T08:54:40.233Z,66.70
2018-05-18T08:57:12.562Z,67.40
2018-05-18T08:59:44.887Z,67.40
2018-05-18T09:02:17.268Z,67.70
2018-05-18T09:04:49.517Z,66.90
2018-05-18T09:07:21.848Z,66.80
2018-05-18T09:09:54.197Z,65.60
2018-05-18T09:12:26.601Z,66.00
2018-05-18T09:14:58.862Z,65.30
2018-05-18T09:17:31.112Z,65.50
2018-05-18T09:20:03.469Z,61.80
2018-05-18T09:22:35.867Z,61.70
2018-05-18T09:25:09.017Z,61.80
2018-05-18T09:27:41.377Z,61.80
2018-05-18T09:30:13.750Z,60.40
2018-05-18T09:32:46.064Z,62.40
2018-05-18T09:35:19.151Z,65.20
2018-05-18T09:37:52.273Z,64.80
2018-05-18T09:40:24.539Z,64.70
2018-05-18T09:42:56.864Z,63.40
2018-05-18T09:45:29.206Z,62.10
2018-05-18T09:48:01.545Z,59.40
2018-05-18T09:50:33.836Z,59.80
2018-05-18T09:53:06.232Z,62.70
2018-05-18T09:55:38.528Z,62.80
2018-05-18T09:58:10.868Z,61.80
2018-05-18T10:00:43.149Z,61.10
2018-05-18T10:03:15.418Z,60.30
2018-05-18T10:05:47.695Z,58.80
2018-05-18T10:08:20.043Z,57.80
2018-05-18T10:10:52.331Z,59.10
2018-05-18T10:13:24.760Z,59.30
2018-05-18T10:15:57.072Z,58.70
2018-05-18T10:18:29.422Z,59.30
2018-05-18T10:21:01.907Z,59.50
2018-05-18T10:23:34.325Z,61.30
2018-05-18T10:26:06.590Z,61.50
2018-05-18T10:28:38.971Z,61.80
2018-05-18T10:31:11.323Z,60.50
2018-05-18T10:33:43.714Z,59.80
2018-05-18T10:36:16.126Z,60.60
2018-05-18T10:38:48.466Z,60.40
2018-05-18T10:41:20.741Z,59.60
2018-05-18T10:43:55.090Z,59.60
2018-05-18T10:46:29.107Z,60.60
2018-05-18T10:49:01.572Z,60.60
2018-05-18T10:51:34.150Z,60.20
2018-05-18T10:54:06.571Z,60.20
2018-05-18T10:56:38.950Z,60.50
2018-05-18T10:59:11.271Z,59.80
2018-05-18T11:01:43.532Z,60.50
2018-05-18T11:04:15.769Z,59.90
2018-05-18T11:06:48.065Z,59.90
2018-05-18T11:09:20.577Z,59.30
2018-05-18T11:11:52.826Z,58.70
2018-05-18T11:14:25.202Z,60.40
2018-05-18T11:16:57.528Z,58.00
2018-05-18T11:19:29.879Z,58.00
2018-05-18T11:22:02.243Z,57.70
2018-05-18T11:24:34.641Z,58.80
2018-05-18T11:27:06.965Z,59.30
2018-05-18T11:29:39.610Z,58.40
2018-05-18T11:32:12.602Z,57.80
2018-05-18T11:34:45.080Z,57.80
2018-05-18T11:37:18.147Z,58.20
2018-05-18T11:39:50.530Z,58.20
2018-05-18T11:42:22.836Z,58.60
2018-05-18T11:44:55.183Z,58.10
2018-05-18T11:47:28.246Z,56.90
2018-05-18T11:50:00.651Z,56.90
2018-05-18T11:52:33.697Z,58.60
2018-05-18T11:55:06.031Z,58.60
2018-05-18T11:57:38.292Z,57.90
2018-05-18T12:00:10.652Z,57.40
2018-05-18T12:02:43.063Z,57.90
2018-05-18T12:05:15.339Z,59.10
2018-05-18T12:07:47.662Z,59.60
2018-05-18T12:10:20.788Z,60.20
2018-05-18T12:12:53.090Z,60.10
2018-05-18T12:15:25.339Z,60.30
2018-05-18T12:17:57.746Z,60.60
2018-05-18T12:20:30.068Z,60.40
2018-05-18T12:23:02.339Z,60.50
2018-05-18T12:25:34.684Z,59.90
2018-05-18T12:28:07.092Z,59.20
2018-05-18T12:30:39.528Z,58.00
2018-05-18T12:33:12.536Z,59.80
2018-05-18T12:35:44.961Z,59.20
2018-05-18T12:38:17.426Z,58.20
2018-05-18T12:40:49.729Z,60.40
2018-05-18T12:43:22.895Z,61.20
2018-05-18T12:45:55.301Z,61.10
2018-05-18T12:48:28.366Z,61.40
2018-05-18T12:51:00.733Z,61.40
2018-05-18T12:53:33.018Z,61.10
2018-05-18T12:56:06.063Z,58.40
2018-05-18T12:58:38.348Z,58.40
2018-05-18T13:01:11.417Z,58.90
2018-05-18T13:03:43.680Z,58.50
2018-05-18T13:06:16.298Z,59.90
2018-05-18T13:08:48.788Z,59.10
2018-05-18T13:11:21.148Z,58.00
2018-05-18T13:13:53.516Z,59.00
2018-05-18T13:16:25.878Z,59.60
2018-05-18T13:18:58.371Z,60.10
2018-05-18T13:21:30.652Z,59.30
2018-05-18T13:24:02.995Z,60.60
2018-05-18T13:26:35.310Z,60.70
2018-05-18T13:29:08.358Z,61.10
2018-05-18T13:31:40.679Z,61.00
2018-05-18T13:34:13.044Z,60.20
2018-05-18T13:36:46.136Z,60.00
2018-05-18T13:39:18.553Z,60.00
2018-05-18T13:41:51.140Z,61.50
2018-05-18T13:44:23.415Z,61.30
2018-05-18T13:46:55.792Z,59.40
2018-05-18T13:49:28.074Z,60.40
2018-05-18T13:52:00.333Z,58.90
2018-05-18T13:54:32.706Z,58.60
2018-05-18T13:57:05.234Z,60.40
2018-05-18T13:59:37.563Z,60.50
2018-05-18T14:02:09.835Z,59.00
2018-05-18T14:04:42.848Z,60.60
2018-05-18T14:07:16.008Z,61.30
2018-05-18T14:09:48.367Z,61.20
2018-05-18T14:12:20.672Z,61.40
2018-05-18T14:14:53.745Z,62.70
2018-05-18T14:17:26.390Z,62.60
2018-05-18T14:19:58.741Z,63.30
2018-05-18T14:22:31.144Z,63.70
2018-05-18T14:25:03.531Z,63.60
2018-05-18T14:27:35.799Z,62.80
2018-05-18T14:30:08.261Z,60.20
2018-05-18T14:32:40.782Z,63.00
2018-05-18T14:35:13.875Z,64.30
2018-05-18T14:37:47.042Z,63.20
2018-05-18T14:40:20.009Z,62.40
2018-05-18T14:42:52.419Z,62.40
2018-05-18T14:45:25.591Z,61.70
2018-05-18T14:47:57.968Z,61.60
2018-05-18T14:50:30.333Z,62.10
2018-05-18T14:53:02.756Z,61.30
2018-05-18T14:55:35.384Z,59.70
2018-05-18T14:58:08.998Z,61.70
2018-05-18T15:00:42.054Z,61.40
2018-05-18T15:03:14.457Z,61.40
2018-05-18T15:05:46.724Z,61.80
2018-05-18T15:08:19.096Z,62.90
2018-05-18T15:10:51.438Z,62.90
2018-05-18T15:13:23.810Z,62.80
2018-05-18T15:15:56.096Z,61.80
2018-05-18T15:18:28.361Z,62.00
2018-05-18T15:21:00.650Z,62.30
2018-05-18T15:23:33.436Z,61.40
2018-05-18T15:26:05.691Z,62.80
2018-05-18T15:28:37.979Z,63.20
2018-05-18T15:31:10.220Z,63.80
2018-05-18T15:33:42.581Z,60.90
2018-05-18T15:36:15.019Z,62.20
2018-05-18T15:38:48.184Z,63.40
2018-05-18T15:41:20.561Z,63.30
2018-05-18T15:43:53.758Z,66.00
2018-05-18T15:46:26.913Z,66.00
2018-05-18T15:49:00.280Z,66.00
2018-05-18T15:51:32.565Z,65.50
2018-05-18T15:54:05.705Z,65.90
2018-05-18T15:56:38.756Z,66.20
2018-05-18T15:59:11.172Z,66.10
2018-05-18T16:01:44.157Z,67.80
2018-05-18T16:04:17.351Z,68.10
2018-05-18T16:06:49.751Z,68.10
2018-05-18T16:09:22.072Z,66.70
2018-05-18T16:11:54.370Z,67.10
2018-05-18T16:14:27.664Z,65.50
2018-05-18T16:17:00.721Z,66.50
2018-05-18T16:19:33.047Z,66.40
2018-05-18T16:22:05.391Z,65.90
2018-05-18T16:24:38.517Z,66.20
2018-05-18T16:27:10.760Z,66.20
2018-05-18T16:29:43.859Z,67.00
2018-05-18T16:32:16.102Z,66.90
2018-05-18T16:34:48.483Z,67.60
2018-05-18T16:37:21.545Z,69.30
2018-05-18T16:39:53.964Z,69.10
2018-05-18T16:42:26.371Z,68.80
2018-05-18T16:44:58.788Z,68.40
2018-05-18T16:47:31.145Z,68.20
2018-05-18T16:50:03.518Z,69.60
2018-05-18T16:52:35.816Z,68.90
2018-05-18T16:55:08.183Z,67.60
2018-05-18T16:57:40.517Z,67.30
2018-05-18T17:00:12.850Z,68.50
2018-05-18T17:02:45.278Z,69.50
2018-05-18T17:05:17.655Z,69.80
2018-05-18T17:07:50.023Z,71.30
2018-05-18T17:10:22.296Z,72.60
2018-05-18T17:12:54.534Z,72.80
2018-05-18T17:15:26.864Z,73.10
2018-05-18T17:17:59.906Z,71.30
2018-05-18T17:20:32.333Z,71.20
2018-05-18T17:23:04.611Z,70.80
2018-05-18T17:25:37.693Z,71.20
2018-05-18T17:28:10.015Z,71.90
2018-05-18T17:30:42.426Z,72.40
2018-05-18T17:33:15.549Z,73.30
2018-05-18T17:35:48.000Z,73.30
2018-05-18T17:38:20.304Z,72.80
2018-05-18T17:40:52.632Z,71.80
2018-05-18T17:43:25.681Z,73.20
2018-05-18T17:45:57.983Z,73.20
2018-05-18T17:48:31.128Z,74.30
2018-05-18T17:51:03.612Z,74.20
2018-05-18T17:53:36.106Z,75.00
2018-05-18T17:56:08.474Z,75.40
2018-05-18T17:58:40.780Z,75.80
2018-05-18T18:01:13.988Z,76.40
2018-05-18T18:03:46.305Z,76.40
2018-05-18T18:06:18.862Z,76.40
2018-05-18T18:08:51.166Z,76.20
2018-05-18T18:11:23.505Z,76.80
2018-05-18T18:13:55.777Z,77.50
2018-05-18T18:16:28.103Z,75.70
2018-05-18T18:19:08.256Z,74.40
2018-05-18T18:21:40.640Z,74.40
2018-05-18T18:24:12.993Z,75.20
2018-05-18T18:26:45.372Z,76.10
2018-05-18T18:29:17.698Z,76.70
2018-05-18T18:31:50.105Z,76.80
2018-05-18T18:34:23.241Z,77.30
2018-05-18T18:36:56.381Z,78.10
2018-05-18T18:39:28.616Z,78.10
2018-05-18T18:42:00.957Z,78.20
2018-05-18T18:44:33.277Z,78.10
2018-05-18T18:47:05.622Z,77.30
2018-05-18T18:49:38.141Z,77.90
2018-05-18T18:52:10.532Z,77.50
2018-05-18T18:54:42.955Z,77.70
2018-05-18T18:57:15.253Z,77.60
2018-05-18T18:59:47.676Z,78.00
2018-05-18T19:02:20.124Z,78.90
2018-05-18T19:04:53.337Z,78.70
2018-05-18T19:07:25.822Z,78.60
2018-05-18T19:09:58.951Z,79.00
2018-05-18T19:12:31.325Z,78.90
2018-05-18T19:15:03.582Z,78.70
2018-05-18T19:17:36.071Z,79.10
2018-05-18T19:20:08.494Z,79.00
2018-05-18T19:22:40.820Z,78.90
2018-05-18T19:25:13.169Z,78.10
2018-05-18T19:27:45.528Z,75.90
2018-05-18T19:30:17.875Z,77.00
2018-05-18T19:32:50.276Z,76.70
2018-05-18T19:35:22.843Z,77.50
2018-05-18T19:37:55.204Z,77.80
2018-05-18T19:40:27.632Z,78.30
2018-05-18T19:42:59.938Z,79.60
2018-05-18T19:45:32.301Z,79.40
2018-05-18T19:48:05.494Z,78.50
2018-05-18T19:50:38.638Z,78.70
2018-05-18T19:53:10.913Z,78.70
2018-05-18T19:55:43.271Z,77.60
2018-05-18T19:58:15.579Z,77.60
2018-05-18T20:00:47.872Z,76.70
2018-05-18T20:03:20.225Z,77.40
2018-05-18T20:05:52.615Z,76.60
2018-05-18T20:08:25.029Z,77.60
2018-05-18T20:10:57.378Z,78.00
2018-05-18T20:13:29.731Z,78.10
2018-05-18T20:16:02.711Z,77.60
2018-05-18T20:18:35.807Z,78.10
2018-05-18T20:21:08.884Z,77.70
2018-05-18T20:23:41.268Z,77.70
2018-05-18T20:26:14.415Z,78.60
2018-05-18T20:28:46.821Z,78.60
2018-05-18T20:31:19.838Z,77.40
2018-05-18T20:33:52.138Z,77.40
2018-05-18T20:36:24.466Z,77.30
2018-05-18T20:38:57.629Z,78.40
2018-05-18T20:41:30.013Z,78.40
2018-05-18T20:44:02.439Z,78.20
2018-05-18T20:46:34.752Z,78.90
2018-05-18T20:49:07.223Z,79.40
2018-05-18T20:51:39.482Z,78.10
2018-05-18T20:54:11.833Z,79.30
2018-05-18T20:56:44.221Z,79.80
2018-05-18T20:59:16.573Z,80.00
2018-05-18T21:01:48.849Z,80.60
2018-05-18T21:04:21.139Z,80.50
2018-05-18T21:06:53.427Z,81.00
2018-05-18T21:09:25.721Z,80.70
2018-05-18T21:11:58.014Z,81.90
2018-05-18T21:14:30.359Z,81.50
2018-05-18T21:17:02.796Z,82.30
2018-05-18T21:19:35.224Z,81.90
2018-05-18T21:22:07.515Z,81.90
2018-05-18T21:24:39.797Z,82.00
2018-05-18T21:27:12.160Z,82.00
2018-05-18T21:29:44.600Z,82.30
2018-05-18T21:32:17.858Z,82.00
2018-05-18T21:34:50.212Z,82.00
2018-05-18T21:37:22.473Z,83.10
2018-05-18T21:39:54.789Z,83.00
2018-05-18T21:42:27.092Z,82.50
2018-05-18T21:44:59.575Z,83.30
2018-05-18T21:47:32.876Z,82.30
2018-05-18T21:50:05.272Z,82.20
2018-05-18T21:52:37.700Z,82.70
2018-05-18T21:55:10.895Z,82.20
2018-05-18T21:57:43.188Z,82.20
2018-05-18T22:00:15.581Z,82.80
2018-05-18T22:02:47.895Z,83.10
2018-05-18T22:05:20.277Z,82.90
2018-05-18T22:07:52.592Z,82.90
2018-05-18T22:10:24.893Z,82.30
2018-05-18T22:12:57.940Z,83.20
2018-05-18T22:15:31.011Z,83.10
2018-05-18T22:18:03.592Z,83.10
2018-05-18T22:20:35.923Z,83.40
2018-05-18T22:23:08.227Z,84.60
2018-05-18T22:25:40.667Z,83.60
2018-05-18T22:28:13.083Z,84.20
2018-05-18T22:30:45.497Z,84.30
2018-05-18T22:33:17.796Z,84.80
2018-05-18T22:35:50.116Z,84.70
2018-05-18T22:38:22.491Z,85.10
2018-05-18T22:40:54.739Z,85.10
2018-05-18T22:43:27.128Z,85.40
2018-05-18T22:45:59.669Z,84.80
2018-05-18T22:48:31.992Z,85.30
2018-05-18T22:51:04.439Z,85.50
2018-05-18T22:53:36.719Z,85.80
2018-05-18T22:56:09.040Z,85.10
2018-05-18T22:58:41.415Z,85.60
2018-05-18T23:01:14.515Z,86.20
2018-05-18T23:06:41.305Z,86.70
2018-05-18T23:09:13.644Z,88.40
2018-05-18T23:11:46.787Z,87.50
2018-05-18T23:14:19.048Z,87.50
2018-05-18T23:16:51.454Z,88.10
2018-05-18T23:19:23.723Z,87.90
2018-05-18T23:21:56.843Z,88.50
2018-05-18T23:24:29.302Z,88.50
2018-05-18T23:27:02.395Z,89.10
2018-05-18T23:29:35.459Z,88.90
2018-05-18T23:32:07.929Z,88.90
2018-05-18T23:34:40.300Z,89.10
2018-05-18T23:37:12.648Z,89.30
2018-05-18T23:39:45.726Z,90.10
2018-05-18T23:42:18.873Z,90.20
2018-05-18T23:44:51.264Z,89.80
2018-05-18T23:47:24.376Z,89.70
2018-05-18T23:49:56.728Z,89.70
2018-05-18T23:52:29.047Z,90.00
2018-05-18T23:55:01.422Z,90.00
2018-05-18T23:57:33.702Z,90.10
